sensor_id;sensor_type;location;lat;lon;timestamp;P1;durP1;ratioP1;P2;durP2;ratioP2
70320;SDS011;61127;55.826;37.046;2022-09-29T00:02:04;4.53;;;2.70;;
70320;SDS011;61127;55.826;37.046;2022-09-29T00:04:32;4.45;;;2.80;;
70320;SDS011;61127;55.826;37.046;2022-09-29T00:06:58;6.50;;;2.97;;
70320;SDS011;61127;55.826;37.046;2022-09-29T00:09:23;5.45;;;2.50;;
70320;SDS011;61127;55.826;37.046;2022-09-29T00:11:52;6.15;;;2.92;;
70320;SDS011;61127;55.826;37.046;2022-09-29T00:16:50;5.35;;;2.80;;
70320;SDS011;61127;55.826;37.046;2022-09-29T00:19:17;5.43;;;2.90;;
70320;SDS011;61127;55.826;37.046;2022-09-29T00:21:44;5.43;;;2.42;;
70320;SDS011;61127;55.826;37.046;2022-09-29T00:24:10;5.00;;;2.70;;
70320;SDS011;61127;55.826;37.046;2022-09-29T00:26:36;6.28;;;2.80;;
70320;SDS011;61127;55.826;37.046;2022-09-29T00:29:02;4.22;;;2.70;;
70320;SDS011;61127;55.826;37.046;2022-09-29T00:31:29;5.20;;;2.70;;
70320;SDS011;61127;55.826;37.046;2022-09-29T00:33:57;6.43;;;2.83;;
70320;SDS011;61127;55.826;37.046;2022-09-29T00:36:24;5.80;;;3.05;;
70320;SDS011;61127;55.826;37.046;2022-09-29T00:38:54;6.07;;;3.30;;
70320;SDS011;61127;55.826;37.046;2022-09-29T00:41:23;8.98;;;3.83;;
70320;SDS011;61127;55.826;37.046;2022-09-29T00:43:55;7.05;;;3.70;;
70320;SDS011;61127;55.826;37.046;2022-09-29T00:46:24;6.75;;;3.95;;
70320;SDS011;61127;55.826;37.046;2022-09-29T00:48:58;5.63;;;3.78;;
70320;SDS011;61127;55.826;37.046;2022-09-29T00:51:35;9.60;;;4.63;;
70320;SDS011;61127;55.826;37.046;2022-09-29T00:54:06;10.15;;;4.50;;
70320;SDS011;61127;55.826;37.046;2022-09-29T00:56:33;8.00;;;4.25;;
70320;SDS011;61127;55.826;37.046;2022-09-29T00:59:03;8.48;;;3.97;;
70320;SDS011;61127;55.826;37.046;2022-09-29T01:01:32;7.72;;;4.10;;
70320;SDS011;61127;55.826;37.046;2022-09-29T01:04:03;8.63;;;4.45;;
70320;SDS011;61127;55.826;37.046;2022-09-29T01:06:40;7.85;;;4.43;;
70320;SDS011;61127;55.826;37.046;2022-09-29T01:09:13;11.13;;;4.63;;
70320;SDS011;61127;55.826;37.046;2022-09-29T01:11:41;10.20;;;5.18;;
70320;SDS011;61127;55.826;37.046;2022-09-29T01:14:07;9.10;;;4.40;;
70320;SDS011;61127;55.826;37.046;2022-09-29T01:16:40;12.07;;;5.53;;
70320;SDS011;61127;55.826;37.046;2022-09-29T01:19:07;10.27;;;5.47;;
70320;SDS011;61127;55.826;37.046;2022-09-29T01:41:50;9.98;;;4.85;;
70320;SDS011;61127;55.826;37.046;2022-09-29T01:47:12;10.18;;;4.90;;
70320;SDS011;61127;55.826;37.046;2022-09-29T01:50:01;10.00;;;5.15;;
70320;SDS011;61127;55.826;37.046;2022-09-29T01:52:32;9.80;;;5.00;;
70320;SDS011;61127;55.826;37.046;2022-09-29T01:55:07;10.23;;;4.85;;
70320;SDS011;61127;55.826;37.046;2022-09-29T01:57:49;7.72;;;4.55;;
70320;SDS011;61127;55.826;37.046;2022-09-29T02:00:25;9.00;;;4.80;;
70320;SDS011;61127;55.826;37.046;2022-09-29T02:03:00;8.13;;;4.68;;
70320;SDS011;61127;55.826;37.046;2022-09-29T02:05:46;10.00;;;5.00;;
70320;SDS011;61127;55.826;37.046;2022-09-29T02:11:03;9.23;;;4.50;;
70320;SDS011;61127;55.826;37.046;2022-09-29T02:16:30;10.27;;;4.78;;
70320;SDS011;61127;55.826;37.046;2022-09-29T02:19:21;8.60;;;4.85;;
70320;SDS011;61127;55.826;37.046;2022-09-29T02:21:50;8.75;;;4.82;;
70320;SDS011;61127;55.826;37.046;2022-09-29T02:24:20;9.30;;;4.95;;
70320;SDS011;61127;55.826;37.046;2022-09-29T02:26:48;9.70;;;4.95;;
70320;SDS011;61127;55.826;37.046;2022-09-29T02:29:16;9.65;;;4.80;;
70320;SDS011;61127;55.826;37.046;2022-09-29T02:31:46;9.45;;;4.53;;
70320;SDS011;61127;55.826;37.046;2022-09-29T02:34:17;9.65;;;4.88;;
70320;SDS011;61127;55.826;37.046;2022-09-29T03:01:18;10.70;;;4.68;;
70320;SDS011;61127;55.826;37.046;2022-09-29T03:03:45;10.70;;;5.40;;
70320;SDS011;61127;55.826;37.046;2022-09-29T03:06:11;9.63;;;4.80;;
70320;SDS011;61127;55.826;37.046;2022-09-29T03:08:39;11.23;;;4.78;;
70320;SDS011;61127;55.826;37.046;2022-09-29T03:11:05;9.93;;;4.60;;
70320;SDS011;61127;55.826;37.046;2022-09-29T03:13:30;9.05;;;4.80;;
70320;SDS011;61127;55.826;37.046;2022-09-29T03:15:57;9.50;;;5.05;;
70320;SDS011;61127;55.826;37.046;2022-09-29T03:18:23;8.45;;;4.85;;
70320;SDS011;61127;55.826;37.046;2022-09-29T03:20:49;10.82;;;4.93;;
70320;SDS011;61127;55.826;37.046;2022-09-29T03:23:16;14.48;;;5.10;;
70320;SDS011;61127;55.826;37.046;2022-09-29T03:25:42;8.43;;;4.63;;
70320;SDS011;61127;55.826;37.046;2022-09-29T03:28:08;9.07;;;4.53;;
70320;SDS011;61127;55.826;37.046;2022-09-29T03:30:37;10.93;;;4.70;;
70320;SDS011;61127;55.826;37.046;2022-09-29T03:33:03;11.38;;;4.45;;
70320;SDS011;61127;55.826;37.046;2022-09-29T03:35:30;12.93;;;4.97;;
70320;SDS011;61127;55.826;37.046;2022-09-29T03:37:57;9.23;;;5.00;;
70320;SDS011;61127;55.826;37.046;2022-09-29T03:40:23;8.85;;;4.78;;
70320;SDS011;61127;55.826;37.046;2022-09-29T03:42:50;11.82;;;5.60;;
70320;SDS011;61127;55.826;37.046;2022-09-29T03:45:17;11.60;;;5.25;;
70320;SDS011;61127;55.826;37.046;2022-09-29T03:47:43;10.45;;;4.70;;
70320;SDS011;61127;55.826;37.046;2022-09-29T03:50:09;8.23;;;5.00;;
70320;SDS011;61127;55.826;37.046;2022-09-29T03:52:38;9.25;;;5.35;;
70320;SDS011;61127;55.826;37.046;2022-09-29T03:55:12;8.70;;;4.88;;
70320;SDS011;61127;55.826;37.046;2022-09-29T03:57:38;10.95;;;4.85;;
70320;SDS011;61127;55.826;37.046;2022-09-29T04:00:04;8.40;;;4.90;;
70320;SDS011;61127;55.826;37.046;2022-09-29T04:02:33;11.82;;;5.20;;
70320;SDS011;61127;55.826;37.046;2022-09-29T04:05:02;8.32;;;4.78;;
70320;SDS011;61127;55.826;37.046;2022-09-29T04:07:28;8.75;;;5.55;;
70320;SDS011;61127;55.826;37.046;2022-09-29T04:09:56;9.93;;;5.10;;
70320;SDS011;61127;55.826;37.046;2022-09-29T04:12:22;10.07;;;4.88;;
70320;SDS011;61127;55.826;37.046;2022-09-29T04:17:48;9.00;;;4.78;;
70320;SDS011;61127;55.826;37.046;2022-09-29T04:20:14;9.00;;;4.40;;
70320;SDS011;61127;55.826;37.046;2022-09-29T04:22:40;7.83;;;4.73;;
70320;SDS011;61127;55.826;37.046;2022-09-29T04:25:07;8.73;;;4.50;;
70320;SDS011;61127;55.826;37.046;2022-09-29T04:27:33;8.88;;;4.40;;
70320;SDS011;61127;55.826;37.046;2022-09-29T04:29:59;10.88;;;4.90;;
70320;SDS011;61127;55.826;37.046;2022-09-29T04:32:25;8.65;;;4.60;;
70320;SDS011;61127;55.826;37.046;2022-09-29T04:34:52;8.93;;;4.63;;
70320;SDS011;61127;55.826;37.046;2022-09-29T04:37:18;7.82;;;4.72;;
70320;SDS011;61127;55.826;37.046;2022-09-29T04:39:44;7.00;;;4.05;;
70320;SDS011;61127;55.826;37.046;2022-09-29T04:42:10;7.40;;;4.10;;
70320;SDS011;61127;55.826;37.046;2022-09-29T04:44:36;9.43;;;4.47;;
70320;SDS011;61127;55.826;37.046;2022-09-29T04:47:02;7.35;;;4.45;;
70320;SDS011;61127;55.826;37.046;2022-09-29T04:49:28;8.68;;;4.18;;
70320;SDS011;61127;55.826;37.046;2022-09-29T04:51:54;8.70;;;4.75;;
70320;SDS011;61127;55.826;37.046;2022-09-29T04:54:24;10.48;;;4.13;;
70320;SDS011;61127;55.826;37.046;2022-09-29T04:56:55;8.93;;;4.40;;
70320;SDS011;61127;55.826;37.046;2022-09-29T04:59:21;8.23;;;4.28;;
70320;SDS011;61127;55.826;37.046;2022-09-29T05:01:49;8.68;;;4.20;;
70320;SDS011;61127;55.826;37.046;2022-09-29T05:04:16;8.25;;;4.78;;
70320;SDS011;61127;55.826;37.046;2022-09-29T05:06:47;7.40;;;4.13;;
70320;SDS011;61127;55.826;37.046;2022-09-29T05:09:16;8.25;;;4.13;;
70320;SDS011;61127;55.826;37.046;2022-09-29T05:11:42;10.02;;;4.40;;
70320;SDS011;61127;55.826;37.046;2022-09-29T05:14:09;7.37;;;4.03;;
70320;SDS011;61127;55.826;37.046;2022-09-29T05:16:35;7.70;;;4.32;;
70320;SDS011;61127;55.826;37.046;2022-09-29T05:19:05;7.22;;;3.88;;
70320;SDS011;61127;55.826;37.046;2022-09-29T05:21:34;8.02;;;4.35;;
70320;SDS011;61127;55.826;37.046;2022-09-29T05:24:03;7.00;;;3.90;;
70320;SDS011;61127;55.826;37.046;2022-09-29T05:26:30;7.53;;;4.47;;
70320;SDS011;61127;55.826;37.046;2022-09-29T05:29:04;7.38;;;3.80;;
70320;SDS011;61127;55.826;37.046;2022-09-29T05:31:41;5.95;;;3.92;;
70320;SDS011;61127;55.826;37.046;2022-09-29T05:34:11;10.23;;;4.07;;
70320;SDS011;61127;55.826;37.046;2022-09-29T05:36:38;6.45;;;3.65;;
70320;SDS011;61127;55.826;37.046;2022-09-29T05:39:04;6.43;;;3.63;;
70320;SDS011;61127;55.826;37.046;2022-09-29T05:41:30;6.82;;;3.97;;
70320;SDS011;61127;55.826;37.046;2022-09-29T05:43:58;7.22;;;3.90;;
70320;SDS011;61127;55.826;37.046;2022-09-29T05:46:26;5.97;;;3.53;;
70320;SDS011;61127;55.826;37.046;2022-09-29T05:48:52;7.28;;;4.07;;
70320;SDS011;61127;55.826;37.046;2022-09-29T05:51:19;7.10;;;3.83;;
70320;SDS011;61127;55.826;37.046;2022-09-29T05:53:48;7.97;;;4.10;;
70320;SDS011;61127;55.826;37.046;2022-09-29T05:56:19;9.05;;;4.07;;
70320;SDS011;61127;55.826;37.046;2022-09-29T05:58:47;12.25;;;4.50;;
70320;SDS011;61127;55.826;37.046;2022-09-29T06:01:14;10.13;;;4.60;;
70320;SDS011;61127;55.826;37.046;2022-09-29T06:03:53;9.57;;;4.97;;
70320;SDS011;61127;55.826;37.046;2022-09-29T06:06:23;9.35;;;4.78;;
70320;SDS011;61127;55.826;37.046;2022-09-29T06:08:51;9.70;;;5.32;;
70320;SDS011;61127;55.826;37.046;2022-09-29T06:11:18;10.73;;;5.38;;
70320;SDS011;61127;55.826;37.046;2022-09-29T06:13:47;8.80;;;4.88;;
70320;SDS011;61127;55.826;37.046;2022-09-29T06:16:17;11.97;;;5.27;;
70320;SDS011;61127;55.826;37.046;2022-09-29T06:18:45;10.65;;;5.55;;
70320;SDS011;61127;55.826;37.046;2022-09-29T06:21:12;12.05;;;5.18;;
70320;SDS011;61127;55.826;37.046;2022-09-29T06:23:41;12.43;;;5.75;;
70320;SDS011;61127;55.826;37.046;2022-09-29T06:26:08;10.63;;;5.70;;
70320;SDS011;61127;55.826;37.046;2022-09-29T06:28:36;12.70;;;6.07;;
70320;SDS011;61127;55.826;37.046;2022-09-29T06:31:06;14.65;;;6.53;;
70320;SDS011;61127;55.826;37.046;2022-09-29T06:33:38;11.18;;;6.30;;
70320;SDS011;61127;55.826;37.046;2022-09-29T06:36:07;13.23;;;7.10;;
70320;SDS011;61127;55.826;37.046;2022-09-29T06:39:04;11.88;;;6.70;;
70320;SDS011;61127;55.826;37.046;2022-09-29T06:41:32;14.80;;;7.30;;
70320;SDS011;61127;55.826;37.046;2022-09-29T06:44:00;12.57;;;6.43;;
70320;SDS011;61127;55.826;37.046;2022-09-29T06:46:27;14.45;;;7.07;;
70320;SDS011;61127;55.826;37.046;2022-09-29T06:48:53;16.17;;;6.70;;
70320;SDS011;61127;55.826;37.046;2022-09-29T06:51:19;16.02;;;7.00;;
70320;SDS011;61127;55.826;37.046;2022-09-29T06:53:48;13.27;;;6.50;;
70320;SDS011;61127;55.826;37.046;2022-09-29T06:56:15;13.32;;;6.95;;
70320;SDS011;61127;55.826;37.046;2022-09-29T06:58:41;11.65;;;6.35;;
70320;SDS011;61127;55.826;37.046;2022-09-29T07:01:08;13.57;;;6.70;;
70320;SDS011;61127;55.826;37.046;2022-09-29T07:03:34;12.00;;;6.40;;
70320;SDS011;61127;55.826;37.046;2022-09-29T07:06:01;13.97;;;6.93;;
70320;SDS011;61127;55.826;37.046;2022-09-29T07:08:28;13.40;;;5.70;;
70320;SDS011;61127;55.826;37.046;2022-09-29T07:10:55;14.30;;;6.82;;
70320;SDS011;61127;55.826;37.046;2022-09-29T07:13:22;13.43;;;6.65;;
70320;SDS011;61127;55.826;37.046;2022-09-29T07:15:49;15.13;;;6.55;;
70320;SDS011;61127;55.826;37.046;2022-09-29T07:18:14;13.50;;;6.85;;
70320;SDS011;61127;55.826;37.046;2022-09-29T07:20:40;14.43;;;6.80;;
70320;SDS011;61127;55.826;37.046;2022-09-29T07:23:06;16.95;;;7.28;;
70320;SDS011;61127;55.826;37.046;2022-09-29T07:25:35;14.37;;;7.43;;
70320;SDS011;61127;55.826;37.046;2022-09-29T07:28:01;13.18;;;6.68;;
70320;SDS011;61127;55.826;37.046;2022-09-29T07:30:27;12.25;;;6.55;;
70320;SDS011;61127;55.826;37.046;2022-09-29T07:32:53;13.15;;;7.15;;
70320;SDS011;61127;55.826;37.046;2022-09-29T07:35:22;13.88;;;7.20;;
70320;SDS011;61127;55.826;37.046;2022-09-29T07:37:52;18.23;;;8.40;;
70320;SDS011;61127;55.826;37.046;2022-09-29T07:40:19;16.10;;;7.60;;
70320;SDS011;61127;55.826;37.046;2022-09-29T07:42:47;13.50;;;7.45;;
70320;SDS011;61127;55.826;37.046;2022-09-29T07:45:15;14.88;;;7.13;;
70320;SDS011;61127;55.826;37.046;2022-09-29T07:47:42;15.98;;;8.05;;
70320;SDS011;61127;55.826;37.046;2022-09-29T07:50:08;13.57;;;7.47;;
70320;SDS011;61127;55.826;37.046;2022-09-29T07:52:34;17.67;;;8.88;;
70320;SDS011;61127;55.826;37.046;2022-09-29T07:55:00;16.30;;;8.10;;
70320;SDS011;61127;55.826;37.046;2022-09-29T07:57:26;14.40;;;7.25;;
70320;SDS011;61127;55.826;37.046;2022-09-29T07:59:52;17.03;;;7.93;;
70320;SDS011;61127;55.826;37.046;2022-09-29T08:02:19;14.70;;;8.20;;
70320;SDS011;61127;55.826;37.046;2022-09-29T08:04:46;17.15;;;7.80;;
70320;SDS011;61127;55.826;37.046;2022-09-29T08:07:11;20.27;;;7.38;;
70320;SDS011;61127;55.826;37.046;2022-09-29T08:09:37;15.00;;;7.33;;
70320;SDS011;61127;55.826;37.046;2022-09-29T08:12:03;15.07;;;7.97;;
70320;SDS011;61127;55.826;37.046;2022-09-29T08:14:30;13.18;;;7.68;;
70320;SDS011;61127;55.826;37.046;2022-09-29T08:16:56;14.70;;;7.03;;
70320;SDS011;61127;55.826;37.046;2022-09-29T08:19:22;13.35;;;6.90;;
70320;SDS011;61127;55.826;37.046;2022-09-29T08:21:49;14.00;;;7.00;;
70320;SDS011;61127;55.826;37.046;2022-09-29T08:24:17;14.70;;;6.90;;
70320;SDS011;61127;55.826;37.046;2022-09-29T08:26:43;11.70;;;6.07;;
70320;SDS011;61127;55.826;37.046;2022-09-29T08:29:13;13.50;;;6.60;;
70320;SDS011;61127;55.826;37.046;2022-09-29T08:31:39;15.30;;;7.00;;
70320;SDS011;61127;55.826;37.046;2022-09-29T08:34:06;13.18;;;6.70;;
70320;SDS011;61127;55.826;37.046;2022-09-29T08:36:33;11.48;;;6.57;;
70320;SDS011;61127;55.826;37.046;2022-09-29T08:39:00;15.20;;;7.32;;
70320;SDS011;61127;55.826;37.046;2022-09-29T08:49:59;10.98;;;5.63;;
70320;SDS011;61127;55.826;37.046;2022-09-29T08:52:30;10.00;;;5.50;;
70320;SDS011;61127;55.826;37.046;2022-09-29T08:55:07;10.98;;;4.85;;
70320;SDS011;61127;55.826;37.046;2022-09-29T08:57:38;13.98;;;6.38;;
70320;SDS011;61127;55.826;37.046;2022-09-29T09:00:05;17.57;;;8.17;;
70320;SDS011;61127;55.826;37.046;2022-09-29T09:05:49;10.60;;;6.55;;
70320;SDS011;61127;55.826;37.046;2022-09-29T09:08:47;10.60;;;5.35;;
70320;SDS011;61127;55.826;37.046;2022-09-29T09:14:52;8.67;;;4.23;;
70320;SDS011;61127;55.826;37.046;2022-09-29T09:22:44;7.70;;;4.35;;
70320;SDS011;61127;55.826;37.046;2022-09-29T09:27:43;10.40;;;4.00;;
70320;SDS011;61127;55.826;37.046;2022-09-29T09:30:17;9.15;;;3.97;;
70320;SDS011;61127;55.826;37.046;2022-09-29T09:32:52;7.97;;;4.05;;
70320;SDS011;61127;55.826;37.046;2022-09-29T09:35:34;9.15;;;3.90;;
70320;SDS011;61127;55.826;37.046;2022-09-29T09:38:14;9.13;;;4.10;;
70320;SDS011;61127;55.826;37.046;2022-09-29T09:40:47;7.93;;;3.83;;
70320;SDS011;61127;55.826;37.046;2022-09-29T09:43:20;8.80;;;3.67;;
70320;SDS011;61127;55.826;37.046;2022-09-29T09:45:54;6.07;;;3.50;;
70320;SDS011;61127;55.826;37.046;2022-09-29T09:48:54;9.15;;;4.32;;
70320;SDS011;61127;55.826;37.046;2022-09-29T10:02:01;8.20;;;3.88;;
70320;SDS011;61127;55.826;37.046;2022-09-29T10:04:28;5.83;;;3.37;;
70320;SDS011;61127;55.826;37.046;2022-09-29T10:06:57;8.43;;;3.58;;
70320;SDS011;61127;55.826;37.046;2022-09-29T10:09:23;8.05;;;3.60;;
70320;SDS011;61127;55.826;37.046;2022-09-29T10:11:49;10.35;;;3.67;;
70320;SDS011;61127;55.826;37.046;2022-09-29T10:14:22;7.20;;;3.60;;
70320;SDS011;61127;55.826;37.046;2022-09-29T10:16:55;5.60;;;2.95;;
70320;SDS011;61127;55.826;37.046;2022-09-29T10:22:22;6.03;;;3.50;;
70320;SDS011;61127;55.826;37.046;2022-09-29T10:24:53;7.50;;;3.80;;
70320;SDS011;61127;55.826;37.046;2022-09-29T10:27:30;7.07;;;3.67;;
70320;SDS011;61127;55.826;37.046;2022-09-29T10:29:56;7.68;;;3.90;;
70320;SDS011;61127;55.826;37.046;2022-09-29T10:32:33;6.22;;;3.80;;
70320;SDS011;61127;55.826;37.046;2022-09-29T10:35:24;6.85;;;3.67;;
70320;SDS011;61127;55.826;37.046;2022-09-29T10:38:00;8.30;;;4.00;;
70320;SDS011;61127;55.826;37.046;2022-09-29T10:40:30;7.47;;;3.83;;
70320;SDS011;61127;55.826;37.046;2022-09-29T10:42:56;8.43;;;4.50;;
70320;SDS011;61127;55.826;37.046;2022-09-29T10:45:24;8.68;;;4.00;;
70320;SDS011;61127;55.826;37.046;2022-09-29T10:51:02;7.63;;;3.63;;
70320;SDS011;61127;55.826;37.046;2022-09-29T10:53:46;7.22;;;4.05;;
70320;SDS011;61127;55.826;37.046;2022-09-29T10:56:15;8.18;;;4.00;;
70320;SDS011;61127;55.826;37.046;2022-09-29T10:58:44;7.90;;;4.13;;
70320;SDS011;61127;55.826;37.046;2022-09-29T11:01:17;6.75;;;3.90;;
70320;SDS011;61127;55.826;37.046;2022-09-29T11:03:46;7.95;;;4.45;;
70320;SDS011;61127;55.826;37.046;2022-09-29T11:06:20;7.28;;;3.55;;
70320;SDS011;61127;55.826;37.046;2022-09-29T11:11:36;8.68;;;4.03;;
70320;SDS011;61127;55.826;37.046;2022-09-29T11:14:05;6.35;;;3.58;;
70320;SDS011;61127;55.826;37.046;2022-09-29T11:20:03;6.53;;;3.65;;
70320;SDS011;61127;55.826;37.046;2022-09-29T11:25:22;5.68;;;3.15;;
70320;SDS011;61127;55.826;37.046;2022-09-29T11:27:58;7.60;;;3.60;;
70320;SDS011;61127;55.826;37.046;2022-09-29T11:44:02;6.05;;;3.55;;
70320;SDS011;61127;55.826;37.046;2022-09-29T11:57:18;7.65;;;3.92;;
70320;SDS011;61127;55.826;37.046;2022-09-29T12:02:34;7.55;;;4.13;;
70320;SDS011;61127;55.826;37.046;2022-09-29T12:07:44;7.22;;;3.80;;
70320;SDS011;61127;55.826;37.046;2022-09-29T12:15:56;6.43;;;4.10;;
70320;SDS011;61127;55.826;37.046;2022-09-29T12:20:57;5.88;;;4.00;;
70320;SDS011;61127;55.826;37.046;2022-09-29T12:23:26;5.22;;;3.60;;
70320;SDS011;61127;55.826;37.046;2022-09-29T12:26:03;5.47;;;3.43;;
70320;SDS011;61127;55.826;37.046;2022-09-29T12:28:40;5.72;;;3.55;;
70320;SDS011;61127;55.826;37.046;2022-09-29T12:31:24;5.32;;;3.75;;
70320;SDS011;61127;55.826;37.046;2022-09-29T12:33:56;7.88;;;3.75;;
70320;SDS011;61127;55.826;37.046;2022-09-29T12:36:34;4.88;;;3.47;;
70320;SDS011;61127;55.826;37.046;2022-09-29T12:39:12;6.37;;;4.03;;
70320;SDS011;61127;55.826;37.046;2022-09-29T12:41:51;6.47;;;4.00;;
70320;SDS011;61127;55.826;37.046;2022-09-29T12:44:39;6.65;;;3.50;;
70320;SDS011;61127;55.826;37.046;2022-09-29T12:47:15;8.82;;;3.88;;
70320;SDS011;61127;55.826;37.046;2022-09-29T12:50:19;7.30;;;4.07;;
70320;SDS011;61127;55.826;37.046;2022-09-29T12:55:31;5.68;;;3.85;;
70320;SDS011;61127;55.826;37.046;2022-09-29T12:58:03;5.75;;;4.20;;
70320;SDS011;61127;55.826;37.046;2022-09-29T13:00:33;5.18;;;4.03;;
70320;SDS011;61127;55.826;37.046;2022-09-29T13:28:24;5.28;;;4.15;;
70320;SDS011;61127;55.826;37.046;2022-09-29T13:31:00;5.25;;;3.80;;
70320;SDS011;61127;55.826;37.046;2022-09-29T13:33:30;5.60;;;3.80;;
70320;SDS011;61127;55.826;37.046;2022-09-29T13:35:57;4.28;;;3.70;;
70320;SDS011;61127;55.826;37.046;2022-09-29T13:38:31;5.80;;;3.90;;
70320;SDS011;61127;55.826;37.046;2022-09-29T13:41:11;5.85;;;4.15;;
70320;SDS011;61127;55.826;37.046;2022-09-29T13:59:25;7.90;;;4.10;;
70320;SDS011;61127;55.826;37.046;2022-09-29T14:01:53;6.57;;;4.20;;
70320;SDS011;61127;55.826;37.046;2022-09-29T14:07:45;8.07;;;3.97;;
70320;SDS011;61127;55.826;37.046;2022-09-29T14:13:04;10.60;;;4.03;;
70320;SDS011;61127;55.826;37.046;2022-09-29T14:29:55;11.45;;;4.38;;
70320;SDS011;61127;55.826;37.046;2022-09-29T14:35:41;10.50;;;4.60;;
70320;SDS011;61127;55.826;37.046;2022-09-29T14:38:10;10.13;;;4.90;;
70320;SDS011;61127;55.826;37.046;2022-09-29T14:44:00;10.20;;;4.78;;
70320;SDS011;61127;55.826;37.046;2022-09-29T15:00:21;11.25;;;5.60;;
70320;SDS011;61127;55.826;37.046;2022-09-29T15:03:04;10.82;;;4.93;;
70320;SDS011;61127;55.826;37.046;2022-09-29T15:05:43;13.23;;;4.82;;
70320;SDS011;61127;55.826;37.046;2022-09-29T15:08:38;9.90;;;5.22;;
70320;SDS011;61127;55.826;37.046;2022-09-29T15:11:24;12.13;;;5.70;;
70320;SDS011;61127;55.826;37.046;2022-09-29T15:13:56;11.63;;;5.45;;
70320;SDS011;61127;55.826;37.046;2022-09-29T15:16:30;13.15;;;5.95;;
70320;SDS011;61127;55.826;37.046;2022-09-29T15:27:55;13.57;;;5.88;;
70320;SDS011;61127;55.826;37.046;2022-09-29T15:30:41;13.00;;;5.97;;
70320;SDS011;61127;55.826;37.046;2022-09-29T15:33:13;13.43;;;6.45;;
70320;SDS011;61127;55.826;37.046;2022-09-29T15:35:45;12.63;;;5.80;;
70320;SDS011;61127;55.826;37.046;2022-09-29T15:40:55;16.95;;;6.45;;
70320;SDS011;61127;55.826;37.046;2022-09-29T15:43:25;16.15;;;6.72;;
70320;SDS011;61127;55.826;37.046;2022-09-29T15:48:29;33.42;;;10.43;;
70320;SDS011;61127;55.826;37.046;2022-09-29T15:50:56;29.85;;;9.77;;
70320;SDS011;61127;55.826;37.046;2022-09-29T15:53:24;24.38;;;9.07;;
70320;SDS011;61127;55.826;37.046;2022-09-29T15:55:52;27.27;;;10.35;;
70320;SDS011;61127;55.826;37.046;2022-09-29T16:01:12;25.08;;;9.10;;
70320;SDS011;61127;55.826;37.046;2022-09-29T16:03:42;22.58;;;8.52;;
70320;SDS011;61127;55.826;37.046;2022-09-29T16:06:13;21.63;;;8.63;;
70320;SDS011;61127;55.826;37.046;2022-09-29T16:08:45;25.63;;;9.05;;
70320;SDS011;61127;55.826;37.046;2022-09-29T16:11:20;27.13;;;9.30;;
70320;SDS011;61127;55.826;37.046;2022-09-29T16:13:52;21.08;;;9.18;;
70320;SDS011;61127;55.826;37.046;2022-09-29T16:16:25;24.98;;;10.63;;
70320;SDS011;61127;55.826;37.046;2022-09-29T16:18:52;27.30;;;10.55;;
70320;SDS011;61127;55.826;37.046;2022-09-29T16:21:23;22.02;;;10.55;;
70320;SDS011;61127;55.826;37.046;2022-09-29T16:31:43;28.23;;;11.02;;
70320;SDS011;61127;55.826;37.046;2022-09-29T16:34:24;18.75;;;9.40;;
70320;SDS011;61127;55.826;37.046;2022-09-29T16:37:02;21.00;;;9.25;;
70320;SDS011;61127;55.826;37.046;2022-09-29T16:39:39;20.58;;;9.85;;
70320;SDS011;61127;55.826;37.046;2022-09-29T16:42:24;30.60;;;11.27;;
70320;SDS011;61127;55.826;37.046;2022-09-29T16:44:52;25.83;;;12.25;;
70320;SDS011;61127;55.826;37.046;2022-09-29T16:49:55;26.30;;;13.32;;
70320;SDS011;61127;55.826;37.046;2022-09-29T16:58:02;26.17;;;12.32;;
70320;SDS011;61127;55.826;37.046;2022-09-29T17:00:32;30.55;;;13.13;;
70320;SDS011;61127;55.826;37.046;2022-09-29T17:03:00;30.13;;;13.63;;
70320;SDS011;61127;55.826;37.046;2022-09-29T17:05:35;31.17;;;12.73;;
70320;SDS011;61127;55.826;37.046;2022-09-29T17:08:05;29.60;;;12.60;;
70320;SDS011;61127;55.826;37.046;2022-09-29T17:10:42;27.33;;;12.13;;
70320;SDS011;61127;55.826;37.046;2022-09-29T17:13:12;22.97;;;10.00;;
70320;SDS011;61127;55.826;37.046;2022-09-29T17:15:40;22.80;;;11.00;;
70320;SDS011;61127;55.826;37.046;2022-09-29T17:18:09;24.58;;;11.60;;
70320;SDS011;61127;55.826;37.046;2022-09-29T17:20:37;24.85;;;11.38;;
70320;SDS011;61127;55.826;37.046;2022-09-29T17:23:04;25.10;;;11.10;;
70320;SDS011;61127;55.826;37.046;2022-09-29T17:28:01;24.27;;;10.60;;
70320;SDS011;61127;55.826;37.046;2022-09-29T17:30:40;24.08;;;10.82;;
70320;SDS011;61127;55.826;37.046;2022-09-29T17:33:14;23.27;;;11.05;;
70320;SDS011;61127;55.826;37.046;2022-09-29T17:35:43;23.08;;;10.95;;
70320;SDS011;61127;55.826;37.046;2022-09-29T17:38:13;22.02;;;11.10;;
70320;SDS011;61127;55.826;37.046;2022-09-29T17:41:00;28.55;;;13.73;;
70320;SDS011;61127;55.826;37.046;2022-09-29T17:43:28;25.75;;;12.18;;
70320;SDS011;61127;55.826;37.046;2022-09-29T17:45:59;27.38;;;12.00;;
70320;SDS011;61127;55.826;37.046;2022-09-29T17:48:26;25.33;;;13.18;;
70320;SDS011;61127;55.826;37.046;2022-09-29T17:50:55;23.10;;;11.25;;
70320;SDS011;61127;55.826;37.046;2022-09-29T17:53:23;25.27;;;11.73;;
70320;SDS011;61127;55.826;37.046;2022-09-29T17:55:51;24.48;;;11.77;;
70320;SDS011;61127;55.826;37.046;2022-09-29T17:58:20;21.52;;;11.07;;
70320;SDS011;61127;55.826;37.046;2022-09-29T18:00:48;25.20;;;11.45;;
70320;SDS011;61127;55.826;37.046;2022-09-29T18:03:17;26.80;;;11.45;;
70320;SDS011;61127;55.826;37.046;2022-09-29T18:05:46;22.88;;;10.85;;
70320;SDS011;61127;55.826;37.046;2022-09-29T18:08:14;24.60;;;11.07;;
70320;SDS011;61127;55.826;37.046;2022-09-29T18:13:31;23.70;;;10.82;;
70320;SDS011;61127;55.826;37.046;2022-09-29T18:15:57;20.67;;;10.75;;
70320;SDS011;61127;55.826;37.046;2022-09-29T18:18:25;25.20;;;10.98;;
70320;SDS011;61127;55.826;37.046;2022-09-29T18:20:51;22.48;;;10.10;;
70320;SDS011;61127;55.826;37.046;2022-09-29T18:23:17;23.60;;;9.88;;
70320;SDS011;61127;55.826;37.046;2022-09-29T18:25:46;21.58;;;10.25;;
70320;SDS011;61127;55.826;37.046;2022-09-29T18:28:15;27.03;;;11.17;;
70320;SDS011;61127;55.826;37.046;2022-09-29T18:30:42;19.08;;;10.18;;
70320;SDS011;61127;55.826;37.046;2022-09-29T18:33:11;22.90;;;10.63;;
70320;SDS011;61127;55.826;37.046;2022-09-29T18:35:40;19.17;;;10.35;;
70320;SDS011;61127;55.826;37.046;2022-09-29T18:38:07;19.75;;;9.93;;
70320;SDS011;61127;55.826;37.046;2022-09-29T18:40:34;24.23;;;10.13;;
70320;SDS011;61127;55.826;37.046;2022-09-29T18:43:00;23.63;;;10.07;;
70320;SDS011;61127;55.826;37.046;2022-09-29T18:45:29;22.13;;;10.38;;
70320;SDS011;61127;55.826;37.046;2022-09-29T18:47:57;22.75;;;9.85;;
70320;SDS011;61127;55.826;37.046;2022-09-29T18:50:29;19.67;;;10.00;;
70320;SDS011;61127;55.826;37.046;2022-09-29T18:52:55;21.67;;;10.10;;
70320;SDS011;61127;55.826;37.046;2022-09-29T18:55:35;21.27;;;9.27;;
70320;SDS011;61127;55.826;37.046;2022-09-29T18:58:15;18.00;;;9.77;;
70320;SDS011;61127;55.826;37.046;2022-09-29T19:00:51;19.20;;;9.38;;
70320;SDS011;61127;55.826;37.046;2022-09-29T19:03:24;19.35;;;10.02;;
70320;SDS011;61127;55.826;37.046;2022-09-29T19:05:52;19.40;;;9.63;;
70320;SDS011;61127;55.826;37.046;2022-09-29T19:08:19;19.23;;;9.55;;
70320;SDS011;61127;55.826;37.046;2022-09-29T19:10:52;17.35;;;9.60;;
70320;SDS011;61127;55.826;37.046;2022-09-29T19:13:19;21.33;;;9.18;;